Time;durP1;ratioP1;P1;durP2;ratioP2;P2;SDS_P1;SDS_P2;PMS_P1;PMS_P2;Temp;Humidity;BMP_temperature;BMP_pressure;BME280_temperature;BME280_humidity;BME280_pressure;Samples;Min_cycle;Max_cycle;Signal;HPM_P1;HPM_P2
2023/12/15 00:02:33;;;;;;;11.67;6.63;;;1.10;99.90;;;;;;5033895;28;20261;-85
2023/12/15 00:05:20;;;;;;;10.43;5.53;;;1.10;99.90;;;;;;5034644;28;20590;-85
2023/12/15 00:08:08;;;;;;;11.53;6.23;;;1.00;99.90;;;;;;5034752;28;20541;-85
2023/12/15 00:10:55;;;;;;;9.77;5.87;;;1.00;99.90;;;;;;5033338;28;20217;-85
2023/12/15 00:13:42;;;;;;;11.10;5.90;;;1.00;99.90;;;;;;5033528;28;20581;-84
2023/12/15 00:16:29;;;;;;;9.97;5.67;;;1.00;99.90;;;;;;5020418;28;20558;-83
2023/12/15 00:19:17;;;;;;;12.50;6.00;;;1.00;99.90;;;;;;5032841;28;20194;-85
2023/12/15 00:22:04;;;;;;;11.50;5.50;;;1.00;99.90;;;;;;5033742;28;20201;-84
2023/12/15 00:24:52;;;;;;;9.17;5.20;;;1.00;99.90;;;;;;5033099;28;20309;-84
2023/12/15 00:27:40;;;;;;;10.10;5.57;;;0.90;99.90;;;;;;5033318;28;20747;-85
2023/12/15 00:30:27;;;;;;;9.33;5.23;;;1.00;99.90;;;;;;5032720;28;20200;-85
2023/12/15 00:33:15;;;;;;;8.93;5.13;;;1.00;99.90;;;;;;5034458;28;20195;-85
2023/12/15 00:36:02;;;;;;;9.93;5.13;;;1.00;99.90;;;;;;5034125;28;20220;-84
2023/12/15 00:38:50;;;;;;;7.90;4.57;;;1.00;99.90;;;;;;5033510;28;20197;-85
2023/12/15 00:41:37;;;;;;;7.40;4.53;;;1.10;99.90;;;;;;5033691;28;20223;-85
2023/12/15 00:44:24;;;;;;;8.37;4.57;;;1.00;99.90;;;;;;5033785;28;20219;-86
2023/12/15 00:51:02;;;;;;;7.73;4.40;;;1.00;99.90;;;;;;5033385;28;20284;-84
2023/12/15 00:53:49;;;;;;;8.27;4.20;;;0.90;99.90;;;;;;5034004;28;20194;-84
2023/12/15 00:56:37;;;;;;;8.00;4.13;;;1.00;99.90;;;;;;5032745;28;20269;-84
2023/12/15 00:59:24;;;;;;;7.33;4.27;;;1.00;99.90;;;;;;5033866;28;20275;-82
2023/12/15 01:02:12;;;;;;;7.23;4.00;;;1.00;99.90;;;;;;5032763;28;20599;-88
2023/12/15 01:04:59;;;;;;;6.60;3.90;;;0.90;99.90;;;;;;5033000;28;20231;-84
2023/12/15 01:07:46;;;;;;;6.60;4.00;;;0.90;99.90;;;;;;5032904;28;20189;-80
2023/12/15 01:10:36;;;;;;;7.07;4.00;;;0.90;99.90;;;;;;5032768;28;20212;-84
2023/12/15 01:13:23;;;;;;;6.87;4.20;;;1.00;99.90;;;;;;5033460;28;20200;-84
2023/12/15 01:16:11;;;;;;;6.13;4.00;;;1.00;99.90;;;;;;5032889;28;20680;-83
2023/12/15 01:18:58;;;;;;;7.93;4.60;;;1.00;99.90;;;;;;5033937;28;20194;-84
2023/12/15 01:21:46;;;;;;;9.47;4.80;;;1.00;99.90;;;;;;5033558;28;20217;-82
2023/12/15 01:24:33;;;;;;;7.87;4.73;;;1.00;99.90;;;;;;5032844;28;20616;-83
2023/12/15 01:27:21;;;;;;;8.40;4.53;;;0.80;99.90;;;;;;5033609;28;20535;-83
2023/12/15 01:30:08;;;;;;;11.27;5.50;;;0.80;99.90;;;;;;5032925;28;20198;-82
2023/12/15 01:32:56;;;;;;;9.33;4.93;;;0.80;99.90;;;;;;5036288;28;20202;-83
2023/12/15 01:35:43;;;;;;;10.07;6.07;;;0.80;99.90;;;;;;5036587;28;20194;-83
2023/12/15 01:38:31;;;;;;;13.33;7.40;;;0.80;99.90;;;;;;5036904;28;20198;-83
2023/12/15 01:41:18;;;;;;;12.33;7.63;;;0.80;99.90;;;;;;5035596;28;20467;-83
2023/12/15 01:44:05;;;;;;;14.10;8.33;;;0.80;99.90;;;;;;5037359;28;20218;-83
2023/12/15 01:46:53;;;;;;;15.90;8.57;;;0.90;99.90;;;;;;5035438;28;20206;-83
2023/12/15 01:49:41;;;;;;;15.40;8.17;;;0.80;99.90;;;;;;5035472;28;20201;-84
2023/12/15 01:52:28;;;;;;;16.17;8.00;;;0.70;99.90;;;;;;5035444;28;20245;-83
2023/12/15 01:55:15;;;;;;;15.50;7.57;;;0.60;99.90;;;;;;5035392;28;20279;-84
2023/12/15 01:58:03;;;;;;;13.33;7.07;;;0.40;99.90;;;;;;5035908;28;20208;-84
2023/12/15 02:00:50;;;;;;;15.53;7.77;;;0.40;99.90;;;;;;5035604;28;20589;-84
2023/12/15 02:03:38;;;;;;;15.10;7.67;;;0.30;99.90;;;;;;5034918;28;20225;-83
2023/12/15 02:06:25;;;;;;;15.80;7.90;;;0.30;99.90;;;;;;5035433;28;20191;-84
2023/12/15 02:09:12;;;;;;;15.10;7.60;;;0.30;99.90;;;;;;5035457;28;20204;-84
2023/12/15 02:12:00;;;;;;;16.40;8.27;;;0.40;99.90;;;;;;5036601;28;20655;-84
2023/12/15 02:14:48;;;;;;;14.63;7.53;;;0.50;99.90;;;;;;5035883;28;20198;-84
2023/12/15 02:17:35;;;;;;;13.77;7.30;;;0.60;99.90;;;;;;5035664;28;20238;-84
2023/12/15 02:20:23;;;;;;;15.77;7.43;;;0.50;99.90;;;;;;5035529;28;20191;-84
2023/12/15 02:23:11;;;;;;;14.30;7.43;;;0.50;99.90;;;;;;5035191;28;20284;-84
2023/12/15 02:25:58;;;;;;;13.80;7.60;;;0.50;99.90;;;;;;5036655;28;20780;-84
2023/12/15 02:28:45;;;;;;;14.53;7.30;;;0.50;99.90;;;;;;5035854;28;20206;-84
2023/12/15 02:31:33;;;;;;;15.30;8.07;;;0.50;99.90;;;;;;5036708;28;20238;-83
2023/12/15 02:34:20;;;;;;;15.80;8.13;;;0.50;99.90;;;;;;5035098;28;20202;-84
2023/12/15 02:37:08;;;;;;;17.40;7.70;;;0.50;99.90;;;;;;5034883;28;20209;-83
2023/12/15 02:39:55;;;;;;;15.33;7.37;;;0.60;99.90;;;;;;5034456;28;20233;-83
2023/12/15 02:42:43;;;;;;;16.07;7.67;;;0.50;99.90;;;;;;5033793;28;20698;-83
2023/12/15 02:45:30;;;;;;;15.40;7.10;;;0.60;99.90;;;;;;5035616;28;20235;-83
2023/12/15 02:48:17;;;;;;;15.20;7.20;;;0.60;99.90;;;;;;5035538;28;20274;-83
2023/12/15 02:51:05;;;;;;;13.10;7.17;;;0.60;99.90;;;;;;5034792;28;20201;-84
2023/12/15 02:53:53;;;;;;;16.30;7.67;;;0.50;99.90;;;;;;5033359;28;20677;-83
2023/12/15 02:56:41;;;;;;;14.97;7.40;;;0.50;99.90;;;;;;5032936;28;20240;-83
2023/12/15 02:59:28;;;;;;;16.50;7.17;;;0.60;99.90;;;;;;5035536;28;20618;-83
2023/12/15 03:02:15;;;;;;;13.57;7.43;;;0.80;99.90;;;;;;5035395;28;20199;-84
2023/12/15 03:05:03;;;;;;;14.57;7.53;;;0.80;99.90;;;;;;5035505;28;20226;-84
2023/12/15 03:07:50;;;;;;;13.90;7.13;;;0.90;99.90;;;;;;5035324;28;20203;-83
2023/12/15 03:10:37;;;;;;;15.63;7.63;;;0.80;99.90;;;;;;5035669;28;20258;-83
2023/12/15 03:13:28;;;;;;;13.70;7.27;;;0.70;99.90;;;;;;5034804;28;20278;-83
2023/12/15 03:16:16;;;;;;;16.17;7.27;;;0.80;99.90;;;;;;5033745;28;20283;-83
2023/12/15 03:19:04;;;;;;;17.17;7.67;;;0.80;99.90;;;;;;5033511;28;20695;-82
2023/12/15 03:21:51;;;;;;;14.83;7.47;;;0.80;99.90;;;;;;5034693;28;20198;-84
2023/12/15 03:24:38;;;;;;;16.93;8.03;;;0.70;99.90;;;;;;5034648;28;20341;-82
2023/12/15 03:27:26;;;;;;;15.10;7.90;;;0.70;99.90;;;;;;5034550;28;20297;-83
2023/12/15 03:30:13;;;;;;;16.53;8.27;;;0.60;99.90;;;;;;5034400;28;20278;-83
2023/12/15 03:33:00;;;;;;;15.53;8.00;;;0.60;99.90;;;;;;5034183;28;20245;-83
2023/12/15 03:35:48;;;;;;;14.80;7.80;;;0.50;99.90;;;;;;5033370;28;20199;-83
2023/12/15 03:38:36;;;;;;;15.73;7.73;;;0.50;99.90;;;;;;5032497;28;20562;-84
2023/12/15 03:41:23;;;;;;;16.10;8.00;;;0.40;99.90;;;;;;5034422;28;20668;-83
2023/12/15 03:44:11;;;;;;;15.57;8.60;;;0.40;99.90;;;;;;5033096;28;20203;-84
2023/12/15 03:46:59;;;;;;;16.83;8.07;;;0.50;99.90;;;;;;5033984;28;20202;-84
2023/12/15 03:49:46;;;;;;;14.97;7.47;;;0.50;99.90;;;;;;5034894;28;20667;-84
2023/12/15 03:52:33;;;;;;;16.50;8.50;;;0.50;99.90;;;;;;5033557;28;20196;-83
2023/12/15 03:55:21;;;;;;;13.03;7.00;;;0.60;99.90;;;;;;5034514;28;20196;-83
2023/12/15 04:06:24;;;;;;;13.53;6.77;;;0.70;99.90;;;;;;4995149;28;20216;-83
2023/12/15 04:09:12;;;;;;;14.70;7.03;;;0.70;99.90;;;;;;4994438;28;20240;-83
2023/12/15 04:12:00;;;;;;;12.40;6.20;;;0.70;99.90;;;;;;4995957;28;20220;-83
2023/12/15 04:14:47;;;;;;;11.67;6.77;;;0.70;99.90;;;;;;4993830;28;20199;-83
2023/12/15 04:17:34;;;;;;;11.93;6.47;;;0.70;99.90;;;;;;4994845;28;20283;-84
2023/12/15 04:20:23;;;;;;;11.73;6.60;;;0.80;99.90;;;;;;4993467;28;20193;-84
2023/12/15 04:23:10;;;;;;;13.50;6.97;;;0.90;99.90;;;;;;4994573;28;20301;-83
2023/12/15 04:30:06;;;;;;;12.93;6.77;;;0.90;99.90;;;;;;4994776;28;20188;-82
2023/12/15 04:32:54;;;;;;;12.93;6.70;;;0.90;99.90;;;;;;4994622;28;20206;-82
2023/12/15 04:35:41;;;;;;;12.83;6.60;;;0.70;99.90;;;;;;4993805;28;20579;-82
2023/12/15 04:38:28;;;;;;;14.20;6.97;;;0.80;99.90;;;;;;4994000;28;20229;-83
2023/12/15 04:41:20;;;;;;;13.90;7.13;;;0.70;99.90;;;;;;4993561;28;20231;-84
2023/12/15 04:44:08;;;;;;;11.53;6.73;;;0.80;99.90;;;;;;4993543;28;20578;-82
2023/12/15 04:50:45;;;;;;;12.93;7.00;;;1.10;99.90;;;;;;4994305;28;20192;-82
2023/12/15 04:53:32;;;;;;;15.07;7.43;;;1.00;99.90;;;;;;4993549;28;20205;-82
2023/12/15 04:56:20;;;;;;;12.57;7.80;;;1.10;99.90;;;;;;4993630;28;20227;-82
2023/12/15 04:59:07;;;;;;;15.53;7.87;;;1.10;99.90;;;;;;4993561;28;20283;-82
2023/12/15 05:01:55;;;;;;;16.37;8.50;;;1.20;99.90;;;;;;4993061;28;20683;-82
2023/12/15 05:04:42;;;;;;;17.13;7.93;;;1.20;99.90;;;;;;5004875;28;20319;-82
2023/12/15 05:07:29;;;;;;;16.17;8.73;;;1.20;99.90;;;;;;5036114;28;20232;-82
2023/12/15 05:10:17;;;;;;;15.27;8.40;;;1.10;99.90;;;;;;5035611;28;20595;-82
2023/12/15 05:13:04;;;;;;;14.77;7.83;;;1.00;99.90;;;;;;5035947;28;20196;-82
2023/12/15 05:15:52;;;;;;;17.23;8.43;;;0.90;99.90;;;;;;5036105;28;20198;-81
2023/12/15 05:18:40;;;;;;;16.10;8.97;;;0.90;99.90;;;;;;5036561;28;20278;-82
2023/12/15 05:21:27;;;;;;;18.77;8.57;;;0.80;99.90;;;;;;5035857;28;20201;-81
2023/12/15 05:24:15;;;;;;;14.67;8.27;;;0.90;99.90;;;;;;5035316;28;20274;-82
2023/12/15 05:27:02;;;;;;;17.53;8.87;;;1.00;99.90;;;;;;5036466;28;20228;-82
2023/12/15 05:29:50;;;;;;;20.87;9.27;;;1.10;99.90;;;;;;5036217;28;20195;-82
2023/12/15 05:32:38;;;;;;;16.40;8.20;;;1.00;99.90;;;;;;5035465;28;20643;-82
2023/12/15 05:35:25;;;;;;;17.37;9.00;;;1.00;99.90;;;;;;5036599;28;20201;-81
2023/12/15 05:38:12;;;;;;;16.50;9.33;;;0.90;99.90;;;;;;5035513;28;20196;-82
2023/12/15 05:41:01;;;;;;;16.47;8.30;;;0.80;99.90;;;;;;5035951;28;20215;-82
2023/12/15 05:43:48;;;;;;;15.90;8.60;;;0.80;99.90;;;;;;5036100;28;20199;-83
2023/12/15 05:46:41;;;;;;;17.70;9.00;;;0.60;99.90;;;;;;5036638;28;20606;-83
2023/12/15 05:49:28;;;;;;;18.93;9.07;;;0.70;99.90;;;;;;5036767;28;20659;-83
2023/12/15 05:52:16;;;;;;;20.30;10.37;;;0.80;99.90;;;;;;5036625;28;20201;-84
2023/12/15 05:55:04;;;;;;;18.77;9.40;;;0.70;99.90;;;;;;5034375;28;20256;-83
2023/12/15 05:57:51;;;;;;;19.40;9.10;;;0.80;99.90;;;;;;5034737;28;20660;-83
2023/12/15 06:00:38;;;;;;;19.20;9.50;;;0.80;99.90;;;;;;5034988;28;20278;-83
2023/12/15 06:03:26;;;;;;;19.17;9.87;;;0.80;99.90;;;;;;5022524;28;20658;-83
2023/12/15 06:06:13;;;;;;;19.53;9.67;;;0.80;99.90;;;;;;5036629;28;20237;-84
2023/12/15 06:09:01;;;;;;;25.17;10.20;;;0.80;99.90;;;;;;5034611;28;20285;-80
2023/12/15 06:11:49;;;;;;;16.83;9.50;;;0.80;99.90;;;;;;5035541;28;20218;-81
2023/12/15 06:14:37;;;;;;;18.70;9.33;;;0.80;99.90;;;;;;5035688;28;20203;-82
2023/12/15 06:17:24;;;;;;;22.87;9.20;;;0.80;99.90;;;;;;5034535;28;20196;-82
2023/12/15 06:20:15;;;;;;;18.50;9.67;;;0.90;99.90;;;;;;5034732;28;20729;-82
2023/12/15 06:23:02;;;;;;;16.60;9.17;;;0.90;99.90;;;;;;5035543;28;20648;-82
2023/12/15 06:25:50;;;;;;;22.23;10.20;;;0.80;99.90;;;;;;5035821;28;20233;-82
2023/12/15 06:28:37;;;;;;;18.83;10.20;;;0.70;99.90;;;;;;5035877;28;20198;-83
2023/12/15 06:31:25;;;;;;;21.80;10.43;;;0.70;99.90;;;;;;5035196;28;20203;-83
2023/12/15 06:34:13;;;;;;;21.17;10.20;;;0.70;99.90;;;;;;5033645;28;20210;-82
2023/12/15 06:37:01;;;;;;;18.60;9.80;;;0.70;99.90;;;;;;5034558;28;20521;-82
2023/12/15 06:39:50;;;;;;;21.47;10.37;;;0.70;99.90;;;;;;5034784;28;20192;-82
2023/12/15 06:42:37;;;;;;;21.97;9.80;;;0.70;99.90;;;;;;5034012;28;20565;-82
2023/12/15 06:45:25;;;;;;;20.10;9.50;;;0.70;99.90;;;;;;5033699;28;20316;-82
2023/12/15 06:48:12;;;;;;;20.00;10.03;;;0.70;99.90;;;;;;5048887;28;20199;-81
2023/12/15 06:51:00;;;;;;;19.00;9.77;;;0.70;99.90;;;;;;5047879;28;20199;-81
2023/12/15 06:53:47;;;;;;;20.33;10.17;;;0.70;99.90;;;;;;5048706;28;20257;-82
2023/12/15 06:56:38;;;;;;;21.73;9.87;;;0.80;99.90;;;;;;5055095;28;20225;-79
2023/12/15 06:59:26;;;;;;;21.97;10.53;;;0.80;99.90;;;;;;5050656;28;20658;-83
2023/12/15 07:02:13;;;;;;;20.73;9.53;;;0.80;99.90;;;;;;5035859;28;20248;-82
2023/12/15 07:05:01;;;;;;;19.97;10.20;;;0.80;99.90;;;;;;5034731;28;20429;-82
2023/12/15 07:07:48;;;;;;;20.83;9.83;;;0.80;99.90;;;;;;5034781;28;20194;-82
2023/12/15 07:10:36;;;;;;;19.43;9.83;;;0.80;99.90;;;;;;5035894;28;20248;-82
2023/12/15 07:13:23;;;;;;;18.47;9.37;;;0.70;99.90;;;;;;5035046;28;20192;-82
2023/12/15 07:16:11;;;;;;;20.80;10.47;;;0.70;99.90;;;;;;5034968;28;20357;-83
2023/12/15 07:18:59;;;;;;;20.47;10.00;;;0.80;99.90;;;;;;5033181;28;20209;-82
2023/12/15 07:21:47;;;;;;;21.33;10.10;;;0.90;99.90;;;;;;5032365;28;20197;-83
2023/12/15 07:24:34;;;;;;;20.57;10.33;;;0.80;99.90;;;;;;5034069;28;20275;-79
2023/12/15 07:27:21;;;;;;;24.37;10.93;;;0.90;99.90;;;;;;5020098;28;20325;-83
2023/12/15 07:30:09;;;;;;;22.43;10.97;;;0.80;99.90;;;;;;5033245;28;20216;-83
2023/12/15 07:32:56;;;;;;;19.13;10.10;;;0.80;99.90;;;;;;5033755;28;20194;-83
2023/12/15 07:35:44;;;;;;;25.17;10.80;;;0.90;99.90;;;;;;5033890;28;20578;-84
2023/12/15 07:38:32;;;;;;;21.33;10.43;;;0.90;99.90;;;;;;5034167;28;20277;-85
2023/12/15 07:41:19;;;;;;;20.00;9.90;;;0.80;99.90;;;;;;5032799;28;20566;-83
2023/12/15 07:44:07;;;;;;;20.17;10.10;;;0.90;99.90;;;;;;5033569;28;20203;-84
2023/12/15 07:46:55;;;;;;;20.03;10.80;;;0.80;99.90;;;;;;5032994;28;20215;-83
2023/12/15 07:49:43;;;;;;;20.73;10.20;;;0.80;99.90;;;;;;5033112;28;20582;-84
2023/12/15 07:52:30;;;;;;;22.57;10.97;;;0.80;99.90;;;;;;5033808;28;20650;-84
2023/12/15 07:55:18;;;;;;;21.17;10.60;;;0.90;99.90;;;;;;5032694;28;20199;-83
2023/12/15 07:58:08;;;;;;;21.13;10.27;;;1.00;99.90;;;;;;5034362;28;20221;-83
2023/12/15 08:00:56;;;;;;;23.27;10.60;;;0.90;99.90;;;;;;5032510;28;20196;-83
2023/12/15 08:03:44;;;;;;;27.20;11.50;;;1.00;99.90;;;;;;5033071;28;20216;-82
2023/12/15 08:06:31;;;;;;;20.83;11.00;;;1.00;99.90;;;;;;5031509;28;20219;-80
2023/12/15 08:09:19;;;;;;;20.17;10.80;;;1.10;99.90;;;;;;5031529;28;20199;-83
2023/12/15 08:12:08;;;;;;;25.40;11.47;;;1.10;99.90;;;;;;5032926;28;20217;-86
2023/12/15 08:14:55;;;;;;;23.30;11.60;;;1.10;99.90;;;;;;5032580;28;20650;-86
2023/12/15 08:17:42;;;;;;;22.60;12.03;;;1.20;99.90;;;;;;5032410;28;20236;-85
2023/12/15 08:20:30;;;;;;;26.77;12.03;;;1.10;99.90;;;;;;5033286;28;20569;-87
2023/12/15 08:23:18;;;;;;;25.00;12.80;;;1.10;99.90;;;;;;5034337;28;20202;-85
2023/12/15 08:26:05;;;;;;;25.23;12.03;;;1.10;99.90;;;;;;5033773;28;20237;-85
2023/12/15 08:28:53;;;;;;;24.67;12.10;;;1.00;99.90;;;;;;5033516;28;20191;-86
2023/12/15 08:31:41;;;;;;;24.00;12.80;;;0.90;99.90;;;;;;5032825;28;20210;-85
2023/12/15 08:34:29;;;;;;;24.30;12.40;;;1.00;99.90;;;;;;5033345;28;20236;-86
2023/12/15 08:37:16;;;;;;;26.20;12.87;;;1.00;99.90;;;;;;5033957;28;20778;-87
2023/12/15 08:40:04;;;;;;;23.23;11.93;;;1.00;99.90;;;;;;5033356;28;20307;-86
2023/12/15 08:42:52;;;;;;;27.60;11.87;;;1.10;99.90;;;;;;5033147;28;20203;-84
2023/12/15 08:45:40;;;;;;;27.97;13.37;;;1.00;99.90;;;;;;5032232;28;20218;-82
2023/12/15 08:48:27;;;;;;;28.63;13.47;;;1.00;99.90;;;;;;5032880;28;20340;-82
2023/12/15 08:51:16;;;;;;;27.07;13.73;;;1.10;99.90;;;;;;5032555;28;20205;-82
2023/12/15 08:54:03;;;;;;;30.70;14.63;;;1.10;99.90;;;;;;5032121;28;20302;-82
2023/12/15 08:56:51;;;;;;;35.80;16.67;;;1.10;99.90;;;;;;5033013;28;20236;-83
2023/12/15 08:59:40;;;;;;;33.67;16.23;;;1.00;99.90;;;;;;5032500;28;20215;-84
2023/12/15 09:02:28;;;;;;;35.50;16.40;;;1.00;99.90;;;;;;5034166;28;20592;-83
2023/12/15 09:05:15;;;;;;;36.83;17.13;;;1.00;99.90;;;;;;5034039;28;20627;-84
2023/12/15 09:08:23;;;;;;;42.23;17.97;;;1.00;99.90;;;;;;5031845;28;20689;-83
2023/12/15 09:11:11;;;;;;;37.67;17.93;;;1.20;99.90;;;;;;5031784;28;20686;-83
2023/12/15 09:14:01;;;;;;;38.07;18.00;;;1.20;99.90;;;;;;5032102;28;20204;-83
2023/12/15 09:16:48;;;;;;;37.13;18.40;;;1.20;99.90;;;;;;5032195;28;20241;-83
2023/12/15 09:19:36;;;;;;;36.20;18.40;;;1.10;99.90;;;;;;5031680;28;20204;-83
2023/12/15 09:22:23;;;;;;;40.60;18.80;;;1.10;99.90;;;;;;5032288;28;20232;-83
2023/12/15 09:25:11;;;;;;;39.10;18.07;;;1.20;99.90;;;;;;5033947;28;20654;-83
2023/12/15 09:27:58;;;;;;;39.67;18.43;;;1.30;99.90;;;;;;5032333;28;20191;-84
2023/12/15 09:30:45;;;;;;;37.70;18.70;;;1.40;99.90;;;;;;5032031;28;20225;-83
2023/12/15 09:33:33;;;;;;;38.07;17.90;;;1.50;99.90;;;;;;5032886;28;20203;-84
2023/12/15 09:36:24;;;;;;;38.30;18.43;;;1.70;99.90;;;;;;5031388;28;20197;-87
2023/12/15 09:39:11;;;;;;;41.33;18.77;;;1.80;99.90;;;;;;5032963;28;20228;-81
2023/12/15 09:41:58;;;;;;;39.03;18.03;;;1.70;99.90;;;;;;5031792;28;20223;-83
2023/12/15 09:44:45;;;;;;;37.93;18.30;;;1.70;99.90;;;;;;5031985;28;20473;-82
2023/12/15 09:47:51;;;;;;;37.03;17.43;;;1.70;99.90;;;;;;5032406;28;20225;-79
2023/12/15 09:50:44;;;;;;;37.00;17.63;;;1.70;99.90;;;;;;5031427;28;20204;-80
2023/12/15 09:53:35;;;;;;;41.83;19.73;;;1.80;99.90;;;;;;5033458;28;20219;-83
2023/12/15 09:56:23;;;;;;;37.33;17.03;;;1.90;99.90;;;;;;5035300;28;20612;-82
2023/12/15 09:59:10;;;;;;;32.87;16.30;;;1.90;99.90;;;;;;5036384;28;20247;-81
2023/12/15 10:01:57;;;;;;;36.67;16.97;;;1.90;99.90;;;;;;5035388;28;20189;-83
2023/12/15 10:04:47;;;;;;;33.93;17.13;;;1.90;99.90;;;;;;5034793;28;20732;-85
2023/12/15 10:07:34;;;;;;;33.23;17.37;;;2.00;99.90;;;;;;5035181;28;20243;-85
2023/12/15 10:10:23;;;;;;;37.80;17.67;;;2.10;99.90;;;;;;5035285;28;20196;-82
2023/12/15 10:13:10;;;;;;;34.23;18.07;;;2.10;99.90;;;;;;5036061;28;20271;-83
2023/12/15 10:15:58;;;;;;;38.00;19.30;;;2.00;99.90;;;;;;5033985;28;20291;-83
2023/12/15 10:18:45;;;;;;;37.10;18.47;;;2.20;99.90;;;;;;5035159;28;20195;-83
2023/12/15 10:21:34;;;;;;;37.13;18.70;;;2.40;99.90;;;;;;5034574;28;20656;-83
2023/12/15 10:24:23;;;;;;;37.90;17.37;;;2.60;99.90;;;;;;5034382;28;20281;-82
2023/12/15 10:27:13;;;;;;;35.93;18.00;;;2.40;99.90;;;;;;5033355;28;20220;-83
2023/12/15 10:30:01;;;;;;;39.23;17.67;;;2.50;99.90;;;;;;5034578;28;20195;-82
2023/12/15 10:32:48;;;;;;;36.37;17.37;;;2.40;99.90;;;;;;5033687;28;20237;-82
2023/12/15 10:35:38;;;;;;;38.43;17.97;;;2.40;99.90;;;;;;5035924;28;20197;-83
2023/12/15 10:38:26;;;;;;;32.63;16.80;;;2.40;99.90;;;;;;5035743;28;20224;-81
2023/12/15 10:41:14;;;;;;;33.87;16.63;;;2.40;99.90;;;;;;5034644;28;20247;-82
2023/12/15 10:44:02;;;;;;;36.87;17.67;;;2.30;99.90;;;;;;5034733;28;20202;-82
2023/12/15 10:46:50;;;;;;;32.70;17.23;;;2.40;99.90;;;;;;5033894;28;20213;-82
2023/12/15 10:49:38;;;;;;;34.50;17.60;;;2.40;99.90;;;;;;5035018;28;20218;-83
2023/12/15 10:52:36;;;;;;;36.27;17.33;;;2.30;99.90;;;;;;5034728;28;20556;-84
2023/12/15 10:55:26;;;;;;;35.40;17.30;;;2.40;99.90;;;;;;5033531;28;20208;-79
2023/12/15 10:58:14;;;;;;;39.37;18.30;;;2.50;99.90;;;;;;5032562;28;20607;-80
2023/12/15 11:01:03;;;;;;;34.83;17.27;;;2.40;99.90;;;;;;5033828;28;20195;-81
2023/12/15 11:03:51;;;;;;;33.63;18.20;;;2.40;99.90;;;;;;5033267;28;20277;-80
2023/12/15 11:06:38;;;;;;;34.57;17.33;;;2.40;99.90;;;;;;5033237;28;20213;-80
2023/12/15 11:09:33;;;;;;;34.97;16.87;;;2.40;99.90;;;;;;5033594;28;20348;-80
2023/12/15 11:12:37;;;;;;;34.57;16.13;;;2.40;99.90;;;;;;5034225;28;20222;-82
2023/12/15 11:15:26;;;;;;;33.27;17.07;;;2.20;99.90;;;;;;5033148;28;20240;-80
2023/12/15 11:18:14;;;;;;;37.77;18.23;;;2.30;99.90;;;;;;5033687;28;20195;-79
2023/12/15 11:21:02;;;;;;;34.80;17.23;;;2.40;99.90;;;;;;5032982;28;20194;-78
2023/12/15 11:23:57;;;;;;;35.57;17.57;;;2.40;99.90;;;;;;5033076;28;20195;-79
2023/12/15 11:26:46;;;;;;;37.20;17.70;;;2.40;99.90;;;;;;5033914;28;20306;-79
2023/12/15 11:29:37;;;;;;;36.57;18.50;;;2.50;99.90;;;;;;5032760;28;20684;-80
2023/12/15 11:32:35;;;;;;;37.10;18.27;;;2.50;99.90;;;;;;5032816;28;20195;-80
2023/12/15 11:35:41;;;;;;;36.13;18.50;;;2.50;99.90;;;;;;5032927;28;20284;-80
2023/12/15 11:38:29;;;;;;;37.57;19.03;;;2.30;99.90;;;;;;5032773;28;20202;-79
2023/12/15 11:41:18;;;;;;;38.33;19.20;;;2.40;99.90;;;;;;5033303;28;20536;-80
2023/12/15 11:44:06;;;;;;;40.50;19.07;;;2.40;99.90;;;;;;5033559;28;20190;-80
2023/12/15 11:46:54;;;;;;;39.90;19.97;;;2.40;99.90;;;;;;5032002;28;20221;-80
2023/12/15 11:49:44;;;;;;;38.03;18.57;;;2.50;99.90;;;;;;5032502;28;20554;-81
2023/12/15 11:52:34;;;;;;;40.37;19.77;;;2.50;99.90;;;;;;5032051;28;20208;-80
2023/12/15 11:55:22;;;;;;;39.20;19.90;;;2.50;99.90;;;;;;5032364;28;20194;-80
2023/12/15 11:58:09;;;;;;;33.97;18.43;;;2.50;99.90;;;;;;5032646;28;20205;-80
2023/12/15 12:00:58;;;;;;;37.80;18.90;;;2.60;99.90;;;;;;5032352;28;20190;-82
2023/12/15 12:03:45;;;;;;;38.53;19.27;;;2.50;99.90;;;;;;5032836;28;20203;-82
2023/12/15 12:06:33;;;;;;;35.00;18.10;;;2.50;99.90;;;;;;5033422;28;20215;-80
2023/12/15 12:09:20;;;;;;;34.40;18.20;;;2.60;99.90;;;;;;5032864;28;20680;-80
2023/12/15 12:12:07;;;;;;;36.17;18.30;;;2.50;99.90;;;;;;5030987;28;20218;-77
2023/12/15 12:15:01;;;;;;;35.80;18.93;;;2.40;99.90;;;;;;5033368;28;20241;-77
2023/12/15 12:17:48;;;;;;;41.53;18.60;;;2.40;99.90;;;;;;5033122;28;20222;-78
2023/12/15 12:20:35;;;;;;;32.40;17.73;;;2.40;99.90;;;;;;5032661;28;20198;-77
2023/12/15 12:23:27;;;;;;;37.97;18.90;;;2.40;99.90;;;;;;5031577;28;20206;-78
2023/12/15 12:26:29;;;;;;;38.07;19.03;;;2.40;99.90;;;;;;5032377;28;20273;-78
2023/12/15 12:29:17;;;;;;;35.47;19.03;;;2.40;99.90;;;;;;5033142;28;20250;-78
2023/12/15 12:32:05;;;;;;;35.33;18.30;;;2.40;99.90;;;;;;5032554;28;20190;-78
2023/12/15 12:34:53;;;;;;;35.83;18.47;;;2.30;99.90;;;;;;5031657;28;20199;-78
2023/12/15 12:37:40;;;;;;;35.93;18.33;;;2.20;99.90;;;;;;5030097;28;20304;-78
2023/12/15 12:40:28;;;;;;;39.90;18.23;;;2.30;99.90;;;;;;5031672;28;20203;-78
2023/12/15 12:43:16;;;;;;;36.53;19.17;;;2.30;99.90;;;;;;5032390;28;20198;-78
2023/12/15 12:46:04;;;;;;;36.73;18.70;;;2.30;99.90;;;;;;5031232;28;20659;-76
2023/12/15 12:48:51;;;;;;;38.13;19.07;;;2.20;99.90;;;;;;5031701;28;20249;-77
2023/12/15 12:51:39;;;;;;;37.20;18.90;;;2.30;99.90;;;;;;5031206;28;20202;-76
2023/12/15 12:54:26;;;;;;;39.77;20.10;;;2.30;99.90;;;;;;5031569;28;20284;-77
2023/12/15 12:57:14;;;;;;;42.20;20.07;;;2.20;99.90;;;;;;5030992;28;20228;-77
2023/12/15 13:00:06;;;;;;;40.57;20.10;;;2.20;99.90;;;;;;5032155;28;20315;-84
2023/12/15 13:02:54;;;;;;;42.13;19.97;;;2.20;99.90;;;;;;5032755;28;20205;-83
2023/12/15 13:05:42;;;;;;;38.53;20.50;;;2.20;99.90;;;;;;5033959;28;20241;-84
2023/12/15 13:08:30;;;;;;;38.67;19.03;;;2.20;99.90;;;;;;5033257;28;20305;-84
2023/12/15 13:11:18;;;;;;;39.13;19.87;;;2.20;99.90;;;;;;5032527;28;20213;-83
2023/12/15 13:14:06;;;;;;;38.00;19.77;;;2.20;99.90;;;;;;5031612;28;20199;-82
2023/12/15 13:16:54;;;;;;;41.73;19.50;;;2.30;99.90;;;;;;5044653;28;20491;-83
2023/12/15 13:19:42;;;;;;;39.73;19.90;;;2.30;99.90;;;;;;5031019;28;20190;-82
2023/12/15 13:22:29;;;;;;;36.37;18.93;;;2.30;99.90;;;;;;5031215;28;20253;-83
2023/12/15 13:25:34;;;;;;;36.80;19.17;;;2.30;99.90;;;;;;5032002;28;20206;-83
2023/12/15 13:28:24;;;;;;;34.17;17.93;;;2.30;99.90;;;;;;5035083;28;20223;-85
2023/12/15 13:31:12;;;;;;;36.33;18.37;;;2.30;99.90;;;;;;5035747;28;20217;-85
2023/12/15 13:33:59;;;;;;;38.43;18.97;;;2.30;99.90;;;;;;5036184;28;20192;-83
2023/12/15 13:36:47;;;;;;;38.50;18.83;;;2.30;99.90;;;;;;5037150;28;20206;-85
2023/12/15 13:39:34;;;;;;;34.83;17.37;;;2.30;99.90;;;;;;5037258;28;20758;-86
2023/12/15 13:42:22;;;;;;;33.20;17.20;;;2.40;99.90;;;;;;5035930;28;20218;-86
2023/12/15 13:45:10;;;;;;;38.97;18.37;;;2.30;99.90;;;;;;5037907;28;20227;-88
2023/12/15 13:47:58;;;;;;;35.03;17.27;;;2.30;99.90;;;;;;5036310;28;20291;-88
2023/12/15 13:50:45;;;;;;;35.47;17.20;;;2.30;99.90;;;;;;5036658;28;20197;-88
2023/12/15 13:53:33;;;;;;;32.67;17.23;;;2.30;99.90;;;;;;5036048;28;20239;-87
2023/12/15 13:56:23;;;;;;;35.00;18.50;;;2.30;99.90;;;;;;5037067;28;20282;-88
2023/12/15 13:59:11;;;;;;;29.53;16.90;;;2.40;99.90;;;;;;5037836;28;20197;-87
2023/12/15 14:01:59;;;;;;;33.77;16.97;;;2.30;99.90;;;;;;5037227;28;20193;-88
2023/12/15 14:04:46;;;;;;;37.57;16.70;;;2.30;99.90;;;;;;5034496;28;20596;-87
2023/12/15 14:07:34;;;;;;;32.53;16.90;;;2.30;99.90;;;;;;5034479;28;20249;-87
2023/12/15 14:10:21;;;;;;;36.00;17.23;;;2.30;99.90;;;;;;5035037;28;20280;-78
2023/12/15 14:13:08;;;;;;;31.47;16.73;;;2.30;99.90;;;;;;5034351;28;20285;-79
2023/12/15 14:15:57;;;;;;;34.00;17.40;;;2.30;99.90;;;;;;5034344;28;20188;-81
2023/12/15 14:18:55;;;;;;;31.10;16.73;;;2.30;99.90;;;;;;5033917;28;20249;-80
2023/12/15 14:21:42;;;;;;;32.47;16.47;;;2.30;99.90;;;;;;5034579;28;20659;-81
2023/12/15 14:24:30;;;;;;;31.43;16.13;;;2.30;99.90;;;;;;5033593;28;20245;-80
2023/12/15 14:27:18;;;;;;;31.30;16.97;;;2.40;99.90;;;;;;5037674;28;20288;-81
2023/12/15 14:30:06;;;;;;;31.57;16.63;;;2.40;99.90;;;;;;5035694;28;20205;-82
2023/12/15 14:32:54;;;;;;;31.43;16.63;;;2.40;99.90;;;;;;5034658;28;20586;-82
2023/12/15 14:35:41;;;;;;;32.43;16.93;;;2.40;99.90;;;;;;5034687;28;20207;-81
2023/12/15 14:38:29;;;;;;;31.73;16.27;;;2.40;99.90;;;;;;5033630;28;20188;-80
2023/12/15 14:41:16;;;;;;;32.57;16.47;;;2.40;99.90;;;;;;5034205;28;20217;-81
2023/12/15 14:44:04;;;;;;;31.67;15.57;;;2.40;99.90;;;;;;5033992;28;20284;-84
2023/12/15 14:46:52;;;;;;;31.10;15.87;;;2.40;99.90;;;;;;5033034;28;20209;-81
2023/12/15 14:49:39;;;;;;;29.27;15.67;;;2.40;99.90;;;;;;5033747;28;20267;-81
2023/12/15 14:52:27;;;;;;;29.13;15.17;;;2.40;99.90;;;;;;5034234;28;20684;-81